Arnprior, Canada
Current Conditions -  °F | °C
As of 9:00 AM on Saturday 25 Oct 2014 (Local Time) from CYOW Reporting Station
Overcast Overcast  
Wind Chill: 40°   Ceiling: 4400
Heat Index: 43°   Visibility: 15mi
Dew Point: 37°   Wind: 5mph
Humidity: 81%   Direction: 180°S
Pressure: 29.73"   Gusts: NA
Location:  45.43°N, 76.37°W
Report Text: CYOW 251300Z 18004KT 15SM OVC044 06/03 A2973 RMK SC8 SLP071
Loading
Personal Weather Stations






























Interactive Weather Map
Tropical Storm Tracking
New forecast layout! Learn more

10-Day Weather Forecast

Advertisements
Track Severe Weather on mobile